AIB734 KATL-KBOS
Flight info
| Callsign | AIB734 |
|---|---|
| Flight time | N/A |
| Altitude | 39000 |
| Route | PLMMR3 BURGG FEXXX OOSHN5 |
| Aircraft | A20N/M-SDE2E3FGHIRWXY/LB1 |
Departure
| Time | 2026-05-04 22:44 |
|---|---|
| Airport | Hartsfield Jackson Atlanta International Airport (KATL) |
Arrival
| Time | N/A |
|---|---|
| Airport | Boston Logan International Airport (KBOS) |
| Time | Latitude | Longitude | Altitude | Speed | Heading |
|---|---|---|---|---|---|
| 2026-05-04 22:13 | 33.63937 | -84.42983 | 1020 ft | 0 kts | 90° |
| 2026-05-04 22:28 | 33.63937 | -84.42991 | 1010 ft | 1 kts | 96° |
| 2026-05-04 22:29 | 33.63938 | -84.43000 | 1010 ft | 1 kts | 103° |
| 2026-05-04 22:29 | 33.63940 | -84.43010 | 1010 ft | 1 kts | 110° |
| 2026-05-04 22:29 | 33.63943 | -84.43018 | 1010 ft | 1 kts | 117° |
| 2026-05-04 22:29 | 33.63946 | -84.43027 | 1010 ft | 1 kts | 125° |
| 2026-05-04 22:30 | 33.63951 | -84.43035 | 1010 ft | 1 kts | 132° |
| 2026-05-04 22:30 | 33.63957 | -84.43042 | 1010 ft | 1 kts | 140° |
| 2026-05-04 22:30 | 33.63963 | -84.43048 | 1011 ft | 1 kts | 147° |
| 2026-05-04 22:30 | 33.63969 | -84.43053 | 1011 ft | 1 kts | 154° |
| 2026-05-04 22:31 | 33.63977 | -84.43057 | 1011 ft | 1 kts | 161° |
| 2026-05-04 22:31 | 33.63984 | -84.43060 | 1011 ft | 1 kts | 168° |
| 2026-05-04 22:31 | 33.63992 | -84.43061 | 1012 ft | 1 kts | 174° |
| 2026-05-04 22:31 | 33.64000 | -84.43062 | 1012 ft | 1 kts | 177° |
| 2026-05-04 22:32 | 33.64001 | -84.43062 | 1012 ft | 0 kts | 177° |
| 2026-05-04 22:37 | 33.63998 | -84.43062 | 1012 ft | 2 kts | 177° |
| 2026-05-04 22:38 | 33.63951 | -84.43061 | 1010 ft | 11 kts | 181° |
| 2026-05-04 22:38 | 33.63859 | -84.43065 | 1008 ft | 15 kts | 181° |
| 2026-05-04 22:38 | 33.63748 | -84.43065 | 1007 ft | 16 kts | 181° |
| 2026-05-04 22:38 | 33.63668 | -84.43001 | 1006 ft | 16 kts | 94° |
| 2026-05-04 22:39 | 33.63664 | -84.42861 | 1005 ft | 17 kts | 89° |
| 2026-05-04 22:39 | 33.63659 | -84.42718 | 1008 ft | 17 kts | 94° |
| 2026-05-04 22:39 | 33.63655 | -84.42572 | 1008 ft | 18 kts | 90° |
| 2026-05-04 22:39 | 33.63655 | -84.42405 | 1005 ft | 21 kts | 90° |
| 2026-05-04 22:40 | 33.63655 | -84.42223 | 1005 ft | 22 kts | 90° |
| 2026-05-04 22:40 | 33.63656 | -84.42029 | 1000 ft | 25 kts | 89° |
| 2026-05-04 22:40 | 33.63655 | -84.41800 | 994 ft | 29 kts | 90° |
| 2026-05-04 22:40 | 33.63654 | -84.41556 | 990 ft | 30 kts | 90° |
| 2026-05-04 22:41 | 33.63658 | -84.41298 | 993 ft | 31 kts | 89° |
| 2026-05-04 22:41 | 33.63652 | -84.41050 | 988 ft | 31 kts | 93° |
| 2026-05-04 22:41 | 33.63646 | -84.40923 | 991 ft | 0 kts | 97° |
| 2026-05-04 22:41 | 33.63642 | -84.40919 | 990 ft | 4 kts | 129° |
| 2026-05-04 22:42 | 33.63600 | -84.40910 | 990 ft | 8 kts | 176° |
| 2026-05-04 22:42 | 33.63567 | -84.40908 | 989 ft | 0 kts | 178° |
| 2026-05-04 22:43 | 33.63549 | -84.40908 | 992 ft | 10 kts | 179° |
| 2026-05-04 22:43 | 33.63474 | -84.40942 | 989 ft | 12 kts | 229° |
| 2026-05-04 22:43 | 33.63471 | -84.41023 | 988 ft | 11 kts | 269° |
| 2026-05-04 22:43 | 33.63463 | -84.41358 | 992 ft | 77 kts | 269° |
| 2026-05-04 22:44 | 33.63462 | -84.42266 | 1002 ft | 138 kts | 269° |
| 2026-05-04 22:44 | 33.63469 | -84.43602 | 1139 ft | 177 kts | 274° |
| 2026-05-04 22:44 | 33.63854 | -84.45093 | 1505 ft | 196 kts | 300° |
| 2026-05-04 22:44 | 33.64567 | -84.46458 | 1860 ft | 206 kts | 289° |
| 2026-05-04 22:45 | 33.64817 | -84.48266 | 1857 ft | 236 kts | 276° |
| 2026-05-04 22:45 | 33.65223 | -84.52532 | 1871 ft | 276 kts | 275° |
| 2026-05-04 22:45 | 33.65352 | -84.54856 | 2198 ft | 277 kts | 267° |
| 2026-05-04 22:46 | 33.64879 | -84.57110 | 2434 ft | 285 kts | 249° |
| 2026-05-04 22:46 | 33.64114 | -84.59338 | 2701 ft | 287 kts | 248° |
| 2026-05-04 22:46 | 33.63379 | -84.61520 | 3142 ft | 284 kts | 249° |
| 2026-05-04 22:46 | 33.62644 | -84.63721 | 3531 ft | 284 kts | 249° |
| 2026-05-04 22:47 | 33.61920 | -84.65925 | 3853 ft | 285 kts | 249° |
| 2026-05-04 22:47 | 33.61194 | -84.68166 | 4051 ft | 291 kts | 249° |
| 2026-05-04 22:47 | 33.60464 | -84.70448 | 4245 ft | 295 kts | 250° |
| 2026-05-04 22:47 | 33.59734 | -84.72764 | 4440 ft | 298 kts | 250° |
| 2026-05-04 22:48 | 33.59010 | -84.75100 | 4622 ft | 300 kts | 250° |
| 2026-05-04 22:48 | 33.58847 | -84.75633 | 4668 ft | 301 kts | 250° |
| 2026-05-04 22:48 | 33.58826 | -84.75700 | 4675 ft | 301 kts | 250° |
| 2026-05-04 22:49 | 33.58495 | -84.77990 | 5063 ft | 253 kts | 276° |
| 2026-05-04 22:49 | 33.59285 | -84.79605 | 5007 ft | 219 kts | 321° |
| 2026-05-04 22:49 | 33.60682 | -84.79896 | 5034 ft | 199 kts | 5° |
| 2026-05-04 22:49 | 33.61920 | -84.79294 | 5058 ft | 187 kts | 23° |
| 2026-05-04 22:50 | 33.62959 | -84.78413 | 5056 ft | 179 kts | 33° |
| 2026-05-04 22:50 | 33.63856 | -84.77411 | 5061 ft | 173 kts | 37° |
| 2026-05-04 22:50 | 33.64677 | -84.76431 | 5201 ft | 163 kts | 38° |
| 2026-05-04 22:50 | 33.65445 | -84.75488 | 5313 ft | 155 kts | 39° |
| 2026-05-04 22:51 | 33.66213 | -84.74570 | 5352 ft | 155 kts | 39° |
| 2026-05-04 22:51 | 33.66984 | -84.73669 | 5481 ft | 154 kts | 39° |
| 2026-05-04 22:51 | 33.67755 | -84.72776 | 5585 ft | 156 kts | 41° |
| 2026-05-04 22:51 | 33.68609 | -84.71830 | 5743 ft | 176 kts | 44° |
| 2026-05-04 22:52 | 33.69564 | -84.70824 | 5958 ft | 188 kts | 43° |
| 2026-05-04 22:52 | 33.70537 | -84.69794 | 6345 ft | 190 kts | 43° |
| 2026-05-04 22:52 | 33.71577 | -84.68649 | 6516 ft | 218 kts | 45° |
| 2026-05-04 22:52 | 33.72681 | -84.67255 | 6976 ft | 237 kts | 50° |
| 2026-05-04 22:53 | 33.73736 | -84.65681 | 7580 ft | 255 kts | 54° |
| 2026-05-04 22:53 | 33.74895 | -84.63932 | 8012 ft | 273 kts | 57° |
| 2026-05-04 22:53 | 33.75917 | -84.61941 | 8618 ft | 288 kts | 60° |
| 2026-05-04 22:53 | 33.76965 | -84.59807 | 8945 ft | 313 kts | 60° |
| 2026-05-04 22:54 | 33.78326 | -84.57625 | 9100 ft | 339 kts | 47° |
| 2026-05-04 22:54 | 33.79717 | -84.55207 | 9261 ft | 369 kts | 68° |
| 2026-05-04 22:54 | 33.80354 | -84.52100 | 9374 ft | 395 kts | 80° |
| 2026-05-04 22:54 | 33.80840 | -84.48778 | 9514 ft | 406 kts | 80° |
| 2026-05-04 22:55 | 33.81319 | -84.45472 | 9645 ft | 400 kts | 80° |
| 2026-05-04 22:55 | 33.81715 | -84.42145 | 9837 ft | 403 kts | 86° |
| 2026-05-04 22:55 | 33.81605 | -84.38807 | 9999 ft | 406 kts | 94° |
| 2026-05-04 22:55 | 33.81474 | -84.35421 | 10251 ft | 406 kts | 89° |
| 2026-05-04 22:56 | 33.81696 | -84.32036 | 10549 ft | 407 kts | 82° |
| 2026-05-04 22:56 | 33.82131 | -84.28662 | 10836 ft | 408 kts | 78° |
| 2026-05-04 22:56 | 33.82755 | -84.25331 | 11138 ft | 410 kts | 77° |
| 2026-05-04 22:56 | 33.83379 | -84.21968 | 11434 ft | 412 kts | 77° |
| 2026-05-04 22:57 | 33.84008 | -84.18576 | 11733 ft | 414 kts | 77° |
| 2026-05-04 22:57 | 33.84640 | -84.15181 | 12031 ft | 417 kts | 76° |
| 2026-05-04 22:57 | 33.85264 | -84.11809 | 12340 ft | 418 kts | 76° |
| 2026-05-04 22:57 | 33.85900 | -84.08387 | 12651 ft | 421 kts | 76° |
| 2026-05-04 22:58 | 33.86541 | -84.04945 | 12959 ft | 423 kts | 76° |
| 2026-05-04 22:58 | 33.87192 | -84.01469 | 13323 ft | 425 kts | 76° |
| 2026-05-04 22:58 | 33.87845 | -83.97981 | 13844 ft | 429 kts | 76° |
| 2026-05-04 22:58 | 33.88542 | -83.94460 | 14312 ft | 433 kts | 75° |
| 2026-05-04 22:59 | 33.89226 | -83.90967 | 14789 ft | 436 kts | 75° |
| 2026-05-04 22:59 | 33.90145 | -83.87476 | 15279 ft | 439 kts | 68° |
| 2026-05-04 22:59 | 33.91298 | -83.84063 | 15772 ft | 442 kts | 66° |
| 2026-05-04 22:59 | 33.92469 | -83.80653 | 16279 ft | 446 kts | 66° |
| 2026-05-04 23:00 | 33.93670 | -83.77158 | 16793 ft | 449 kts | 66° |
| 2026-05-04 23:00 | 33.94466 | -83.74844 | 17133 ft | 451 kts | 66° |
| 2026-05-04 23:00 | 33.95857 | -83.71448 | 17653 ft | 452 kts | 55° |
| 2026-05-04 23:00 | 33.97712 | -83.68396 | 18190 ft | 453 kts | 51° |
| 2026-05-04 23:01 | 33.99603 | -83.65359 | 18673 ft | 455 kts | 51° |
| 2026-05-04 23:01 | 34.01511 | -83.62290 | 19150 ft | 457 kts | 51° |
| 2026-05-04 23:01 | 34.03401 | -83.59251 | 19623 ft | 459 kts | 51° |
| 2026-05-04 23:01 | 34.05327 | -83.56156 | 20106 ft | 461 kts | 51° |
| 2026-05-04 23:02 | 34.07233 | -83.53093 | 20573 ft | 462 kts | 51° |
| 2026-05-04 23:02 | 34.09168 | -83.49981 | 21070 ft | 464 kts | 51° |
| 2026-05-04 23:02 | 34.11105 | -83.46865 | 21585 ft | 465 kts | 51° |
| 2026-05-04 23:02 | 34.13042 | -83.43749 | 22099 ft | 465 kts | 51° |
| 2026-05-04 23:03 | 34.14989 | -83.40616 | 22638 ft | 466 kts | 51° |
| 2026-05-04 23:03 | 34.16946 | -83.37468 | 23154 ft | 466 kts | 51° |
| 2026-05-04 23:03 | 34.18894 | -83.34333 | 23687 ft | 467 kts | 51° |
| 2026-05-04 23:03 | 34.20852 | -83.31184 | 24063 ft | 471 kts | 51° |
| 2026-05-04 23:04 | 34.22788 | -83.28024 | 24407 ft | 476 kts | 52° |
| 2026-05-04 23:04 | 34.24706 | -83.24734 | 24751 ft | 481 kts | 52° |
| 2026-05-04 23:04 | 34.26642 | -83.21399 | 25112 ft | 485 kts | 52° |
| 2026-05-04 23:04 | 34.28589 | -83.18047 | 25469 ft | 488 kts | 52° |
| 2026-05-04 23:05 | 34.30587 | -83.14738 | 25837 ft | 488 kts | 51° |
| 2026-05-04 23:05 | 34.32630 | -83.11455 | 26206 ft | 489 kts | 50° |
| 2026-05-04 23:05 | 34.34679 | -83.08162 | 26587 ft | 489 kts | 50° |
| 2026-05-04 23:05 | 34.36729 | -83.04870 | 26969 ft | 489 kts | 50° |
| 2026-05-04 23:06 | 34.38756 | -83.01560 | 27354 ft | 490 kts | 51° |
| 2026-05-04 23:06 | 34.40767 | -82.98219 | 27747 ft | 489 kts | 51° |
| 2026-05-04 23:06 | 34.42743 | -82.94930 | 28142 ft | 489 kts | 51° |
| 2026-05-04 23:06 | 34.44735 | -82.91615 | 28429 ft | 491 kts | 51° |
| 2026-05-04 23:07 | 34.46768 | -82.88232 | 28574 ft | 495 kts | 51° |
| 2026-05-04 23:07 | 34.48829 | -82.84864 | 28712 ft | 499 kts | 50° |
| 2026-05-04 23:07 | 34.50935 | -82.81482 | 28848 ft | 503 kts | 50° |
| 2026-05-04 23:07 | 34.53056 | -82.78079 | 28994 ft | 506 kts | 50° |
| 2026-05-04 23:08 | 34.55171 | -82.74659 | 29128 ft | 509 kts | 51° |
| 2026-05-04 23:08 | 34.57271 | -82.71181 | 29269 ft | 511 kts | 51° |
| 2026-05-04 23:08 | 34.59345 | -82.67741 | 29413 ft | 512 kts | 51° |
| 2026-05-04 23:08 | 34.59464 | -82.67543 | 29418 ft | 512 kts | 51° |
| 2026-05-04 23:27 | 34.60966 | -82.65052 | 29636 ft | 502 kts | 51° |
| 2026-05-04 23:28 | 34.63028 | -82.61631 | 29866 ft | 503 kts | 51° |
| 2026-05-04 23:28 | 34.65104 | -82.58195 | 29972 ft | 506 kts | 52° |
| 2026-05-04 23:28 | 34.69227 | -82.51171 | 29983 ft | 514 kts | 52° |
| 2026-05-04 23:29 | 34.73394 | -82.44057 | 29987 ft | 518 kts | 52° |
| 2026-05-04 23:29 | 34.77591 | -82.36887 | 29988 ft | 521 kts | 52° |
| 2026-05-04 23:30 | 34.81808 | -82.29682 | 29986 ft | 522 kts | 52° |
| 2026-05-04 23:30 | 34.86026 | -82.22467 | 29980 ft | 523 kts | 52° |
| 2026-05-04 23:31 | 34.90229 | -82.15270 | 29988 ft | 524 kts | 52° |
| 2026-05-04 23:31 | 34.94469 | -82.08012 | 29960 ft | 525 kts | 52° |
| 2026-05-04 23:32 | 34.98705 | -82.00755 | 29961 ft | 525 kts | 52° |
| 2026-05-04 23:32 | 35.02924 | -81.93516 | 29979 ft | 525 kts | 52° |
| 2026-05-04 23:33 | 35.07174 | -81.86219 | 29963 ft | 526 kts | 52° |
| 2026-05-04 23:33 | 35.11581 | -81.79177 | 29966 ft | 521 kts | 41° |
| 2026-05-04 23:34 | 35.17008 | -81.73356 | 29963 ft | 519 kts | 37° |
| 2026-05-04 23:34 | 35.22436 | -81.67517 | 29965 ft | 521 kts | 40° |
| 2026-05-04 23:35 | 35.27553 | -81.61230 | 29970 ft | 510 kts | 41° |
| 2026-05-04 23:35 | 35.29935 | -81.58194 | 29966 ft | 493 kts | 42° |
| 2026-05-04 23:35 | 35.32312 | -81.55127 | 29970 ft | 500 kts | 42° |
| 2026-05-04 23:36 | 35.37164 | -81.48879 | 29955 ft | 510 kts | 42° |
| 2026-05-04 23:36 | 35.42144 | -81.42585 | 29951 ft | 515 kts | 41° |
| 2026-05-04 23:37 | 35.47155 | -81.36230 | 29957 ft | 520 kts | 42° |
| 2026-05-04 23:37 | 35.52158 | -81.29804 | 29953 ft | 511 kts | 42° |
| 2026-05-04 23:38 | 35.57058 | -81.23499 | 29968 ft | 516 kts | 42° |
| 2026-05-04 23:38 | 35.59538 | -81.20305 | 30217 ft | 513 kts | 42° |
| 2026-05-04 23:38 | 35.61981 | -81.17155 | 30459 ft | 511 kts | 42° |
| 2026-05-04 23:39 | 35.64443 | -81.13973 | 30702 ft | 509 kts | 42° |
| 2026-05-04 23:39 | 35.66878 | -81.10823 | 30954 ft | 508 kts | 42° |
| 2026-05-04 23:39 | 35.69314 | -81.07671 | 31196 ft | 507 kts | 42° |
| 2026-05-04 23:39 | 35.71728 | -81.04505 | 31451 ft | 506 kts | 43° |
| 2026-05-04 23:40 | 35.74078 | -81.01365 | 31704 ft | 505 kts | 43° |
| 2026-05-04 23:40 | 35.76459 | -80.98179 | 31956 ft | 505 kts | 43° |
| 2026-05-04 23:40 | 35.78848 | -80.94982 | 32217 ft | 504 kts | 43° |
| 2026-05-04 23:40 | 35.81219 | -80.91806 | 32476 ft | 503 kts | 43° |
| 2026-05-04 23:41 | 35.83587 | -80.88630 | 32739 ft | 502 kts | 43° |
| 2026-05-04 23:41 | 35.85921 | -80.85498 | 32993 ft | 501 kts | 43° |
| 2026-05-04 23:41 | 35.88276 | -80.82335 | 33253 ft | 500 kts | 43° |
| 2026-05-04 23:41 | 35.90630 | -80.79169 | 33489 ft | 499 kts | 43° |
| 2026-05-04 23:42 | 35.92957 | -80.76055 | 33754 ft | 497 kts | 43° |
| 2026-05-04 23:42 | 35.95328 | -80.72907 | 34009 ft | 495 kts | 42° |
| 2026-05-04 23:42 | 35.97698 | -80.69834 | 34248 ft | 493 kts | 42° |
| 2026-05-04 23:42 | 36.00057 | -80.66784 | 34484 ft | 491 kts | 42° |
| 2026-05-04 23:43 | 36.02394 | -80.63759 | 34717 ft | 490 kts | 42° |
| 2026-05-04 23:43 | 36.04728 | -80.60736 | 34961 ft | 488 kts | 41° |
| 2026-05-04 23:43 | 36.07082 | -80.57687 | 35208 ft | 486 kts | 41° |
| 2026-05-04 23:43 | 36.09407 | -80.54675 | 35457 ft | 484 kts | 41° |
| 2026-05-04 23:44 | 36.11741 | -80.51653 | 35707 ft | 482 kts | 41° |
| 2026-05-04 23:44 | 36.14047 | -80.48666 | 35969 ft | 479 kts | 41° |
| 2026-05-04 23:44 | 36.16347 | -80.45686 | 36227 ft | 476 kts | 41° |
| 2026-05-04 23:44 | 36.17850 | -80.43708 | 36399 ft | 475 kts | 43° |
| 2026-05-04 23:45 | 36.20092 | -80.40711 | 36654 ft | 472 kts | 43° |
| 2026-05-04 23:45 | 36.23031 | -80.36777 | 37013 ft | 467 kts | 43° |
| 2026-05-04 23:45 | 36.24519 | -80.34785 | 37185 ft | 465 kts | 43° |
| 2026-05-04 23:45 | 36.26705 | -80.31860 | 37457 ft | 461 kts | 43° |
| 2026-05-04 23:46 | 36.28873 | -80.28960 | 37735 ft | 456 kts | 43° |
| 2026-05-04 23:46 | 36.31025 | -80.26083 | 37956 ft | 453 kts | 43° |
| 2026-05-04 23:46 | 36.35289 | -80.20401 | 38069 ft | 453 kts | 42° |
| 2026-05-04 23:47 | 36.39596 | -80.14685 | 38179 ft | 453 kts | 42° |
| 2026-05-04 23:47 | 36.43907 | -80.08983 | 38301 ft | 453 kts | 42° |
| 2026-05-04 23:48 | 36.48239 | -80.03268 | 38416 ft | 453 kts | 42° |
| 2026-05-04 23:48 | 36.52487 | -79.97537 | 38510 ft | 453 kts | 43° |
| 2026-05-04 23:49 | 36.56745 | -79.91763 | 38601 ft | 453 kts | 43° |
| 2026-05-04 23:49 | 36.61021 | -79.85980 | 38667 ft | 453 kts | 43° |
| 2026-05-04 23:50 | 36.65308 | -79.80197 | 38711 ft | 454 kts | 43° |
| 2026-05-04 23:50 | 36.69572 | -79.74457 | 38746 ft | 454 kts | 43° |
| 2026-05-04 23:51 | 36.73820 | -79.68633 | 38792 ft | 455 kts | 44° |
| 2026-05-04 23:51 | 36.78057 | -79.62746 | 38819 ft | 455 kts | 44° |
| 2026-05-04 23:52 | 36.82306 | -79.56839 | 38874 ft | 456 kts | 44° |
| 2026-05-04 23:52 | 36.86508 | -79.50992 | 38909 ft | 456 kts | 44° |
| 2026-05-04 23:53 | 36.89342 | -79.47042 | 38912 ft | 457 kts | 44° |
| 2026-05-04 23:53 | 36.93605 | -79.41119 | 38913 ft | 458 kts | 44° |
| 2026-05-04 23:55 | 37.07734 | -79.21600 | 38923 ft | 462 kts | 43° |